Terminal Aerodrome Forecast
Issued by NWS

Home | Current Version | Previous Version | Text Only | Print | Product List | Glossary On
Versions: 1 2 3 4 5 6 7 8 9 10 11 12 13 14 15 16 17 18 19
000
FTUS44 KLZK 230456 AAC
TAFLLQ
TAF AMD
KLLQ 230456Z 2305/2324 14010G18KT P6SM VCTS SCT007 OVC020CB
      TEMPO 2305/2309 3SM SHRA BR BKN007
     FM230900 18012G20KT 4SM SHRA BR OVC005
     FM231500 22012G20KT 6SM SHRA SCT005 BKN010 PROB30 2318/2324 4SM
      TSRA BR BKN010CB=

USA.gov is the U.S. government's official web portal to all federal, state and local government web resources and services.